Time;durP1;ratioP1;P1;durP2;ratioP2;P2;SDS_P1;SDS_P2;PMS_P1;PMS_P2;Temp;Humidity;BMP_temperature;BMP_pressure;BME280_temperature;BME280_humidity;BME280_pressure;Samples;Min_cycle;Max_cycle;Signal;HPM_P1;HPM_P2
2023/01/22 00:00:59;;;;;;;24.13;14.17;;;;;;;-0.99;100.00;98890.63;5070515;28;20210;-85
2023/01/22 00:03:25;;;;;;;23.53;13.13;;;;;;;-0.94;100.00;98886.22;5071112;28;20213;-84
2023/01/22 00:05:52;;;;;;;26.07;14.90;;;;;;;-0.97;100.00;98891.44;5071264;28;20250;-84
2023/01/22 00:08:19;;;;;;;22.57;13.77;;;;;;;-0.93;100.00;98882.78;5071041;28;20234;-84
2023/01/22 00:10:52;;;;;;;20.53;12.50;;;;;;;-0.93;100.00;98882.78;5070246;28;20224;-85
2023/01/22 00:13:20;;;;;;;24.10;13.60;;;;;;;-1.00;100.00;98871.59;5071076;28;20206;-85
2023/01/22 00:15:46;;;;;;;23.13;13.37;;;;;;;-0.99;100.00;98875.06;5071048;28;20205;-84
2023/01/22 00:18:13;;;;;;;23.43;13.20;;;;;;;-1.01;100.00;98875.06;5071194;28;20233;-84
2023/01/22 00:20:40;;;;;;;25.00;13.80;;;;;;;-0.99;100.00;98875.06;5070424;28;20209;-84
2023/01/22 00:23:08;;;;;;;21.53;12.73;;;;;;;-0.91;100.00;98870.63;5071148;28;20652;-84
2023/01/22 00:25:35;;;;;;;21.67;13.47;;;;;;;-0.86;100.00;98868.84;5084308;28;20240;-84
2023/01/22 00:28:04;;;;;;;22.87;14.00;;;;;;;-0.91;100.00;98870.63;5075640;28;20212;-83
2023/01/22 00:30:31;;;;;;;23.93;13.27;;;;;;;-0.89;100.00;98866.25;5074771;28;20209;-84
2023/01/22 00:32:57;;;;;;;21.77;13.00;;;;;;;-0.81;100.00;98867.06;5075045;28;20637;-84
2023/01/22 00:35:24;;;;;;;22.30;12.83;;;;;;;-0.85;100.00;98860.16;5074976;28;20206;-84
2023/01/22 00:37:51;;;;;;;23.73;13.57;;;;;;;-0.90;100.00;98856.78;5075000;28;20215;-84
2023/01/22 00:40:18;;;;;;;23.20;12.87;;;;;;;-0.80;100.00;98861.81;5074143;28;20577;-85
2023/01/22 00:42:44;;;;;;;21.67;13.60;;;;;;;-0.82;100.00;98863.59;5075115;28;20204;-84
2023/01/22 00:45:14;;;;;;;19.97;11.47;;;;;;;-0.82;100.00;98854.94;5074416;28;20235;-84
2023/01/22 00:47:41;;;;;;;20.07;12.07;;;;;;;-0.83;100.00;98863.59;5074553;28;20320;-84
2023/01/22 00:50:09;;;;;;;20.63;12.53;;;;;;;-0.82;100.00;98855.78;5073560;28;20231;-84
2023/01/22 00:52:36;;;;;;;24.33;12.67;;;;;;;-0.83;100.00;98856.69;5074583;28;20210;-84
2023/01/22 00:55:03;;;;;;;22.90;13.10;;;;;;;-0.84;100.00;98856.69;5074602;28;20689;-84
2023/01/22 00:57:29;;;;;;;22.13;12.27;;;;;;;-0.84;100.00;98849.78;5074239;28;20212;-84
2023/01/22 00:59:56;;;;;;;21.27;11.60;;;;;;;-0.80;100.00;98848.84;5073766;28;20241;-84
2023/01/22 01:02:24;;;;;;;20.20;12.17;;;;;;;-0.82;100.00;98849.72;5074550;28;20211;-84
2023/01/22 01:04:50;;;;;;;20.07;12.17;;;;;;;-0.77;100.00;98853.13;5074483;28;20203;-84
2023/01/22 01:07:17;;;;;;;20.90;13.03;;;;;;;-0.83;100.00;98859.28;5074276;28;20232;-84
2023/01/22 01:09:43;;;;;;;19.53;11.97;;;;;;;-0.77;100.00;98859.19;5073582;28;20227;-84
2023/01/22 01:12:10;;;;;;;21.40;12.13;;;;;;;-0.82;100.00;98860.13;5073983;28;20218;-84
2023/01/22 01:14:36;;;;;;;19.10;11.83;;;;;;;-0.77;100.00;98853.13;5074348;28;20592;-84
2023/01/22 01:17:03;;;;;;;20.07;11.67;;;;;;;-0.76;100.00;98860.03;5074386;28;20207;-84
2023/01/22 01:19:31;;;;;;;19.10;12.17;;;;;;;-0.76;100.00;98855.72;5073326;28;20227;-84
2023/01/22 01:21:57;;;;;;;20.23;12.10;;;;;;;-0.72;100.00;98857.41;5074191;28;20210;-84
2023/01/22 01:24:24;;;;;;;19.97;11.80;;;;;;;-0.78;100.00;98846.22;5073931;28;20218;-84
2023/01/22 01:26:50;;;;;;;25.13;12.80;;;;;;;-0.80;100.00;98845.41;5073671;28;20246;-84
2023/01/22 01:29:17;;;;;;;21.07;12.23;;;;;;;-0.73;100.00;98852.22;5073147;28;20223;-84
2023/01/22 01:31:44;;;;;;;21.53;12.53;;;;;;;-0.75;100.00;98854.84;5073899;28;20209;-84
2023/01/22 01:34:11;;;;;;;21.40;12.40;;;;;;;-0.68;100.00;98842.66;5073900;28;20252;-84
2023/01/22 01:36:39;;;;;;;19.80;11.60;;;;;;;-0.65;100.00;98863.34;5073605;28;20232;-84
2023/01/22 01:39:05;;;;;;;20.50;12.57;;;;;;;-0.71;100.00;98860.84;5072713;28;20243;-84
2023/01/22 01:41:31;;;;;;;19.00;11.67;;;;;;;-0.65;100.00;98847.78;5073829;28;20215;-84
2023/01/22 01:44:10;;;;;;;21.60;12.00;;;;;;;-0.72;100.00;98846.16;5073777;28;20584;-84
2023/01/22 01:46:41;;;;;;;21.37;12.03;;;;;;;-0.74;100.00;98842.72;5073499;28;20657;-84
2023/01/22 01:49:16;;;;;;;19.30;11.73;;;;;;;-0.69;100.00;98846.13;5072989;28;20596;-85
2023/01/22 01:51:43;;;;;;;20.03;11.43;;;;;;;-0.65;100.00;98852.97;5073018;28;20216;-84
2023/01/22 01:54:10;;;;;;;20.63;11.70;;;;;;;-0.64;100.00;98846.91;5073572;28;20289;-85
2023/01/22 01:56:41;;;;;;;22.10;12.37;;;;;;;-0.68;100.00;98847.84;5073447;28;20215;-84
2023/01/22 01:59:12;;;;;;;17.20;11.20;;;;;;;-0.66;100.00;98843.47;5070407;28;20242;-84
2023/01/22 02:01:39;;;;;;;19.97;11.93;;;;;;;-0.67;100.00;98839.16;5073041;28;20221;-85
2023/01/22 02:04:06;;;;;;;20.50;11.90;;;;;;;-0.63;100.00;98841.69;5073273;28;20223;-84
2023/01/22 02:06:33;;;;;;;21.43;12.60;;;;;;;-0.64;100.00;98839.09;5073142;28;20230;-84
2023/01/22 02:09:02;;;;;;;18.43;11.90;;;;;;;-0.55;100.00;98839.00;5072633;28;20257;-84
2023/01/22 02:11:30;;;;;;;19.60;12.00;;;;;;;-0.58;100.00;98839.03;5073106;28;20304;-84
2023/01/22 02:14:01;;;;;;;19.80;12.60;;;;;;;-0.66;100.00;98836.56;5073164;28;20211;-84
2023/01/22 02:16:27;;;;;;;18.03;11.00;;;;;;;-0.64;100.00;98841.69;5073028;28;20211;-84
2023/01/22 02:18:54;;;;;;;18.93;11.60;;;;;;;-0.64;100.00;98839.09;5072257;28;20583;-85
2023/01/22 02:21:31;;;;;;;18.20;10.63;;;;;;;-0.56;100.00;98837.28;5073236;28;20206;-84
2023/01/22 02:23:58;;;;;;;18.20;10.90;;;;;;;-0.53;100.00;98832.03;5073284;28;20242;-84
2023/01/22 02:26:24;;;;;;;21.20;11.90;;;;;;;-0.55;100.00;98839.00;5072805;28;20234;-84
2023/01/22 02:28:51;;;;;;;22.53;12.73;;;;;;;-0.64;100.00;98833.91;5072164;28;20237;-84
2023/01/22 02:31:17;;;;;;;19.07;11.93;;;;;;;-0.61;100.00;98837.31;5072402;28;20583;-84
2023/01/22 02:33:44;;;;;;;18.50;10.70;;;;;;;-0.53;100.00;98837.22;5072512;28;20213;-84
2023/01/22 02:36:10;;;;;;;17.50;11.40;;;;;;;-0.52;100.00;98838.94;5072724;28;20200;-84
2023/01/22 02:38:38;;;;;;;19.97;11.90;;;;;;;-0.48;100.00;98831.09;5072424;28;20238;-84
2023/01/22 02:41:05;;;;;;;19.03;11.20;;;;;;;-0.46;100.00;98841.44;5072079;28;20199;-84
2023/01/22 02:43:31;;;;;;;19.93;12.13;;;;;;;-0.46;100.00;98839.72;5072696;28;20211;-84
2023/01/22 02:45:58;;;;;;;15.83;10.67;;;;;;;-0.48;100.00;98835.44;5072530;28;20227;-84
2023/01/22 02:48:24;;;;;;;18.27;12.13;;;;;;;-0.44;100.00;98831.91;5072092;28;20227;-84
2023/01/22 02:50:51;;;;;;;20.37;11.80;;;;;;;-0.50;100.00;98847.59;5071628;28;20207;-84
2023/01/22 02:53:17;;;;;;;19.30;11.80;;;;;;;-0.41;100.00;98837.03;5072289;28;20211;-84
2023/01/22 02:55:46;;;;;;;18.50;11.37;;;;;;;-0.50;100.00;98839.78;5072445;28;20214;-84
2023/01/22 02:58:13;;;;;;;19.67;11.30;;;;;;;-0.51;100.00;98840.69;5072141;28;20234;-84
2023/01/22 03:00:39;;;;;;;19.97;11.87;;;;;;;-0.47;100.00;98837.13;5071392;28;20769;-84
2023/01/22 03:03:06;;;;;;;17.33;10.90;;;;;;;-0.40;100.00;98838.75;5072337;28;20214;-84
2023/01/22 03:05:33;;;;;;;17.40;11.27;;;;;;;-0.40;100.00;98828.38;5072274;28;20210;-84
2023/01/22 03:08:00;;;;;;;16.53;10.43;;;;;;;-0.40;100.00;98836.16;5072054;28;20211;-84
2023/01/22 03:10:26;;;;;;;17.20;11.07;;;;;;;-0.44;100.00;98826.72;5071342;28;20211;-84
2023/01/22 03:21:14;;;;;;;16.47;10.60;;;;;;;-0.38;100.00;98826.63;5071324;28;20241;-84
2023/01/22 03:23:41;;;;;;;16.50;11.67;;;;;;;-0.35;100.00;98829.16;5071886;28;20211;-84
2023/01/22 03:26:08;;;;;;;17.03;11.03;;;;;;;-0.31;100.00;98834.28;5071564;28;20235;-84
2023/01/22 03:28:36;;;;;;;18.77;11.00;;;;;;;-0.38;100.00;98829.22;5071465;28;20240;-84
2023/01/22 03:31:03;;;;;;;17.70;10.70;;;;;;;-0.38;100.00;98827.47;5070951;28;20236;-84
2023/01/22 03:33:29;;;;;;;17.67;10.47;;;;;;;-0.26;100.00;98827.28;5071744;28;20210;-84
2023/01/22 03:36:00;;;;;;;19.20;11.23;;;;;;;-0.33;100.00;98827.44;5071436;28;20237;-84
2023/01/22 03:38:26;;;;;;;19.03;10.80;;;;;;;-0.34;100.00;98830.88;5071492;28;20233;-84
2023/01/22 03:40:53;;;;;;;20.93;10.80;;;;;;;-0.35;100.00;98831.75;5070912;28;20564;-84
2023/01/22 03:43:19;;;;;;;16.43;11.03;;;;;;;-0.37;100.00;98830.94;5071441;28;20643;-84
2023/01/22 03:45:47;;;;;;;18.03;11.27;;;;;;;-0.33;100.00;98836.06;5071454;28;20207;-84
2023/01/22 03:48:13;;;;;;;16.20;10.27;;;;;;;-0.28;100.00;98838.56;5071214;28;20228;-84
2023/01/22 03:50:40;;;;;;;19.37;11.73;;;;;;;-0.28;100.00;98842.88;5070566;28;20211;-84
2023/01/22 03:53:06;;;;;;;17.60;11.30;;;;;;;-0.23;100.00;98831.56;5071514;28;20211;-84
2023/01/22 03:55:33;;;;;;;15.20;11.07;;;;;;;-0.22;100.00;98839.34;5071602;28;20214;-84
2023/01/22 03:57:59;;;;;;;19.47;11.53;;;;;;;-0.28;100.00;98829.91;5071417;28;20229;-84
2023/01/22 04:00:26;;;;;;;19.33;11.27;;;;;;;-0.30;100.00;98836.03;5070790;28;20221;-85
2023/01/22 04:02:54;;;;;;;17.10;10.73;;;;;;;-0.29;100.00;98831.66;5071337;28;20221;-85
2023/01/22 04:05:20;;;;;;;15.60;11.03;;;;;;;-0.19;100.00;98838.44;5071227;28;20207;-85
2023/01/22 04:07:48;;;;;;;18.53;11.37;;;;;;;-0.23;100.00;98836.78;5071087;28;20238;-85
2023/01/22 04:10:16;;;;;;;17.50;11.53;;;;;;;-0.18;100.00;98830.63;5070480;28;20249;-85
2023/01/22 04:12:42;;;;;;;16.20;10.73;;;;;;;-0.25;100.00;98829.00;5071245;28;20234;-86
2023/01/22 04:15:11;;;;;;;19.07;10.53;;;;;;;-0.25;100.00;98833.34;5071091;28;20207;-85
2023/01/22 04:17:37;;;;;;;16.33;10.53;;;;;;;-0.22;100.00;98835.00;5071127;28;20293;-85
2023/01/22 04:20:06;;;;;;;17.60;11.60;;;;;;;-0.27;100.00;98830.78;5070439;28;20231;-85
2023/01/22 04:22:32;;;;;;;16.50;10.47;;;;;;;-0.21;100.00;98841.06;5071204;28;20590;-86
2023/01/22 04:24:59;;;;;;;17.97;11.43;;;;;;;-0.23;100.00;98836.78;5071143;28;20207;-86
2023/01/22 04:27:25;;;;;;;17.57;10.77;;;;;;;-0.24;100.00;98837.66;5071179;28;20231;-86
2023/01/22 04:29:52;;;;;;;17.40;10.83;;;;;;;-0.26;100.00;98836.84;5070280;28;20227;-86
2023/01/22 04:32:18;;;;;;;17.33;10.77;;;;;;;-0.28;100.00;98829.91;5071034;28;20207;-86
2023/01/22 04:34:46;;;;;;;16.57;10.77;;;;;;;-0.28;100.00;98828.19;5071435;28;20214;-86
2023/01/22 04:37:14;;;;;;;17.33;10.63;;;;;;;-0.25;100.00;98836.78;5070941;28;20214;-86
2023/01/22 04:39:40;;;;;;;18.70;11.80;;;;;;;-0.08;100.00;98831.34;5073190;22;20717;-77
2023/01/22 04:42:07;;;;;;;17.33;11.33;;;;;;;-0.14;100.00;98841.84;5051134;28;20223;-77
2023/01/22 04:44:33;;;;;;;17.10;11.40;;;;;;;-0.20;100.00;98841.94;5050912;28;20212;-77
2023/01/22 04:47:00;;;;;;;17.57;10.60;;;;;;;-0.16;100.00;98840.09;5050916;28;20315;-77
2023/01/22 04:49:26;;;;;;;17.07;10.23;;;;;;;-0.17;100.00;98838.38;5050382;28;20232;-77
2023/01/22 04:51:53;;;;;;;20.20;11.17;;;;;;;-0.17;100.00;98847.06;5050792;28;20212;-79
2023/01/22 04:54:21;;;;;;;18.73;12.07;;;;;;;-0.17;100.00;98848.78;5050953;28;20212;-75
2023/01/22 04:56:47;;;;;;;17.27;10.67;;;;;;;-0.17;100.00;98851.38;5051003;28;20216;-77
2023/01/22 04:59:14;;;;;;;19.67;11.37;;;;;;;-0.22;100.00;98848.88;5050064;28;20228;-77
2023/01/22 05:01:41;;;;;;;17.67;11.83;;;;;;;-0.18;100.00;98860.94;5050815;28;20211;-77
2023/01/22 05:04:07;;;;;;;17.90;11.27;;;;;;;-0.16;100.00;98853.09;5051002;28;20643;-76
2023/01/22 05:06:34;;;;;;;17.93;11.53;;;;;;;-0.15;100.00;98861.75;5050724;28;20235;-77
2023/01/22 05:09:00;;;;;;;19.17;12.37;;;;;;;-0.13;100.00;98860.84;5050040;28;20575;-77
2023/01/22 05:11:28;;;;;;;18.70;12.33;;;;;;;-0.09;100.00;98864.25;5051654;28;20211;-78
2023/01/22 05:13:54;;;;;;;19.43;11.40;;;;;;;-0.13;100.00;98866.03;5054322;28;20222;-77
2023/01/22 05:16:21;;;;;;;19.13;11.10;;;;;;;-0.16;100.00;98865.22;5054377;28;20211;-77
2023/01/22 05:18:47;;;;;;;17.77;10.73;;;;;;;-0.17;100.00;98869.56;5054045;28;20610;-77
2023/01/22 05:21:14;;;;;;;20.70;12.43;;;;;;;-0.19;100.00;98874.81;5054268;28;20211;-76
2023/01/22 05:23:42;;;;;;;21.43;12.77;;;;;;;-0.18;100.00;98871.34;5054376;28;20222;-77
2023/01/22 05:26:08;;;;;;;20.93;12.50;;;;;;;-0.13;100.00;98879.91;5054239;28;20208;-77
2023/01/22 05:28:36;;;;;;;18.07;11.47;;;;;;;-0.17;100.00;98877.34;5054058;28;20239;-77
2023/01/22 05:31:03;;;;;;;21.10;13.10;;;;;;;-0.15;100.00;98872.13;5053595;28;20211;-77
2023/01/22 05:33:30;;;;;;;18.17;11.33;;;;;;;-0.13;100.00;98877.31;5054108;28;20675;-78
2023/01/22 05:35:57;;;;;;;18.80;11.70;;;;;;;-0.16;100.00;98876.47;5054050;28;20207;-77
2023/01/22 05:38:23;;;;;;;19.83;12.50;;;;;;;-0.13;100.00;98884.22;5054417;28;20207;-79
2023/01/22 05:40:50;;;;;;;18.80;11.40;;;;;;;-0.14;100.00;98878.22;5053473;28;20283;-77
2023/01/22 05:43:16;;;;;;;21.27;12.33;;;;;;;-0.12;100.00;98880.75;5053856;28;20206;-76
2023/01/22 05:45:44;;;;;;;21.50;12.93;;;;;;;-0.15;100.00;98877.34;5054034;28;20588;-76
2023/01/22 05:48:11;;;;;;;22.13;13.30;;;;;;;-0.16;100.00;98881.66;5053828;28;20227;-77
2023/01/22 05:50:39;;;;;;;20.47;12.27;;;;;;;-0.16;100.00;98888.63;5053442;28;20211;-78
2023/01/22 05:53:06;;;;;;;21.53;12.07;;;;;;;-0.14;100.00;98888.59;5055120;28;20208;-76
2023/01/22 05:55:33;;;;;;;17.17;11.23;;;;;;;-0.15;100.00;98887.72;5055035;28;20215;-77
2023/01/22 05:57:59;;;;;;;23.83;13.03;;;;;;;-0.11;100.00;98892.84;5053714;28;20208;-77
2023/01/22 06:00:26;;;;;;;19.97;12.17;;;;;;;-0.11;100.00;98898.03;5052794;28;20232;-77
2023/01/22 06:02:56;;;;;;;20.70;11.97;;;;;;;-0.08;100.00;98892.81;5053563;28;20295;-76
2023/01/22 06:05:23;;;;;;;20.67;11.87;;;;;;;-0.10;100.00;98891.97;5053389;28;20226;-78
2023/01/22 06:07:49;;;;;;;21.20;13.07;;;;;;;-0.07;100.00;98899.72;5053148;28;20239;-78
2023/01/22 06:10:16;;;;;;;23.40;13.60;;;;;;;-0.13;100.00;98897.22;5052520;28;20242;-77
2023/01/22 06:12:43;;;;;;;21.37;13.17;;;;;;;-0.08;100.00;98898.00;5053384;28;20217;-78
2023/01/22 06:15:10;;;;;;;24.53;13.30;;;;;;;-0.04;100.00;98897.06;5053246;28;20211;-76
2023/01/22 06:17:37;;;;;;;21.80;13.53;;;;;;;-0.09;100.00;98908.41;5053125;28;20547;-76
2023/01/22 06:20:06;;;;;;;22.40;13.63;;;;;;;-0.08;100.00;98914.50;5052206;28;20301;-76
2023/01/22 06:22:33;;;;;;;22.13;13.13;;;;;;;-0.09;100.00;98913.63;5052220;28;20212;-78
2023/01/22 06:24:59;;;;;;;22.07;12.73;;;;;;;-0.08;100.00;98916.19;5052665;28;20208;-77
2023/01/22 06:27:26;;;;;;;23.37;13.80;;;;;;;-0.07;100.00;98910.13;5053076;28;20234;-78
2023/01/22 06:29:52;;;;;;;19.63;13.70;;;;;;;-0.06;100.00;98914.44;5051867;28;20224;-77
2023/01/22 06:32:19;;;;;;;21.77;12.70;;;;;;;-0.06;100.00;98917.03;5052778;28;20212;-77
2023/01/22 06:34:45;;;;;;;23.27;14.03;;;;;;;-0.04;100.00;98923.03;5052673;28;20208;-77
2023/01/22 06:37:13;;;;;;;23.97;13.00;;;;;;;-0.07;100.00;98922.22;5053077;28;20208;-77
2023/01/22 06:39:40;;;;;;;22.83;13.97;;;;;;;0.05;100.00;98920.31;5051946;28;20240;-77
2023/01/22 06:42:06;;;;;;;21.40;12.43;;;;;;;-0.02;100.00;98926.50;5052712;28;20265;-77
2023/01/22 06:44:33;;;;;;;21.87;13.30;;;;;;;-0.02;100.00;98918.69;5052540;28;20214;-76
2023/01/22 06:47:00;;;;;;;22.30;13.17;;;;;;;0.09;100.00;98924.59;5052401;28;20208;-77
2023/01/22 06:49:26;;;;;;;23.73;13.70;;;;;;;0.00;100.00;98924.72;5051398;28;20231;-77
2023/01/22 06:51:53;;;;;;;21.93;13.20;;;;;;;0.05;100.00;98925.53;5052025;28;20221;-77
2023/01/22 06:54:20;;;;;;;20.03;12.67;;;;;;;0.06;100.00;98928.97;5052314;28;20211;-78
2023/01/22 06:56:47;;;;;;;21.63;12.77;;;;;;;0.06;100.00;98934.16;5052434;28;20297;-77
2023/01/22 06:59:13;;;;;;;20.87;12.60;;;;;;;0.00;100.00;98932.53;5051506;28;20228;-78
2023/01/22 07:01:40;;;;;;;23.60;14.00;;;;;;;-0.02;100.00;98944.69;5052217;28;20206;-79
2023/01/22 07:04:07;;;;;;;23.47;13.30;;;;;;;-0.03;100.00;98942.09;5052106;28;20264;-77
2023/01/22 07:06:33;;;;;;;24.50;13.83;;;;;;;-0.04;100.00;98943.84;5052040;28;20211;-77
2023/01/22 07:09:00;;;;;;;24.33;14.67;;;;;;;0.04;100.00;98939.41;5051214;28;20239;-78
2023/01/22 07:11:28;;;;;;;23.93;13.40;;;;;;;0.08;100.00;98942.81;5052265;28;20207;-77
2023/01/22 07:13:54;;;;;;;22.77;13.30;;;;;;;0.03;100.00;98944.63;5052151;28;20590;-77
2023/01/22 07:16:21;;;;;;;20.50;12.43;;;;;;;-0.01;100.00;98949.00;5052130;28;20220;-78
2023/01/22 07:18:47;;;;;;;21.60;12.73;;;;;;;0.03;100.00;98950.69;5051469;28;20224;-77
2023/01/22 07:21:13;;;;;;;24.07;13.50;;;;;;;0.00;100.00;98955.91;5052073;28;20215;-77
2023/01/22 07:23:41;;;;;;;24.63;14.17;;;;;;;0.09;100.00;98955.78;5051952;28;20208;-78
2023/01/22 07:26:07;;;;;;;21.20;13.03;;;;;;;0.12;100.00;98957.44;5052056;28;20265;-77
2023/01/22 07:28:35;;;;;;;22.23;13.30;;;;;;;0.18;100.00;98958.25;5051657;28;20239;-77
2023/01/22 07:31:02;;;;;;;21.13;12.47;;;;;;;0.19;100.00;98956.50;5051176;28;20219;-78
2023/01/22 07:33:29;;;;;;;22.77;13.93;;;;;;;0.17;100.00;98959.13;5051777;28;20291;-78
2023/01/22 07:35:57;;;;;;;23.33;12.97;;;;;;;0.09;100.00;98960.13;5051689;28;20237;-78
2023/01/22 07:38:27;;;;;;;24.63;13.30;;;;;;;0.05;100.00;98961.91;5051492;28;20212;-78
2023/01/22 07:40:54;;;;;;;21.93;12.10;;;;;;;-0.01;100.00;98964.59;5050684;28;20218;-78
2023/01/22 07:43:20;;;;;;;22.07;12.80;;;;;;;0.01;100.00;98965.41;5051123;28;20690;-78
2023/01/22 07:45:48;;;;;;;23.80;13.60;;;;;;;0.01;100.00;98965.41;5051558;28;20210;-79
2023/01/22 07:48:15;;;;;;;24.77;14.00;;;;;;;0.03;100.00;98962.81;5051527;28;20641;-78
2023/01/22 07:50:41;;;;;;;23.63;13.60;;;;;;;0.03;100.00;98968.88;5051110;28;20208;-77
2023/01/22 07:53:10;;;;;;;24.43;13.80;;;;;;;0.06;100.00;98970.53;5051815;28;20209;-78
2023/01/22 07:55:37;;;;;;;24.80;13.07;;;;;;;0.07;100.00;98975.72;5051582;28;20666;-78
2023/01/22 07:58:05;;;;;;;27.65;16.70;;;;;;;0.12;100.00;98973.91;5051232;28;20427;-78
2023/01/22 08:00:35;;;;;;;27.17;16.03;;;;;;;0.09;100.00;98979.19;5050543;28;20235;-77
2023/01/22 08:03:04;;;;;;;24.70;14.70;;;;;;;0.15;100.00;98976.50;5051261;28;20211;-78
2023/01/22 08:05:30;;;;;;;26.17;14.53;;;;;;;0.16;100.00;98978.22;5051467;28;20231;-80
2023/01/22 08:07:57;;;;;;;25.67;14.63;;;;;;;0.18;100.00;98981.63;5051169;28;20224;-77
2023/01/22 08:10:24;;;;;;;26.93;14.67;;;;;;;0.24;100.00;98984.13;5050508;28;20239;-77
2023/01/22 08:12:50;;;;;;;23.77;14.73;;;;;;;0.35;100.00;98989.16;5051155;28;20208;-76
2023/01/22 08:15:17;;;;;;;24.80;13.67;;;;;;;0.28;100.00;98993.63;5051477;28;20219;-76
2023/01/22 08:17:43;;;;;;;28.17;14.77;;;;;;;0.27;100.00;98986.72;5051146;28;20204;-77
2023/01/22 08:20:11;;;;;;;29.53;14.10;;;;;;;0.29;100.00;98991.84;5050170;28;20235;-78
2023/01/22 08:22:38;;;;;;;24.23;14.43;;;;;;;0.35;100.00;99000.44;5051043;28;20215;-76
2023/01/22 08:25:05;;;;;;;26.90;14.77;;;;;;;0.32;100.00;98995.28;5051068;28;20297;-77
2023/01/22 08:27:33;;;;;;;27.37;14.83;;;;;;;0.38;100.00;99002.13;5050024;28;20211;-78
2023/01/22 08:30:00;;;;;;;21.90;13.30;;;;;;;0.40;100.00;99009.03;5048274;28;20605;-77
2023/01/22 08:32:26;;;;;;;26.83;14.67;;;;;;;0.37;100.00;99014.25;5048809;28;20208;-77
2023/01/22 08:34:53;;;;;;;19.80;12.60;;;;;;;0.35;100.00;99016.03;5051036;28;20688;-77
2023/01/22 08:37:21;;;;;;;24.87;13.83;;;;;;;0.38;100.00;99018.56;5050887;28;20248;-77
2023/01/22 08:39:48;;;;;;;24.70;14.20;;;;;;;0.42;100.00;99017.66;5046625;28;20236;-77
2023/01/22 08:42:14;;;;;;;21.60;13.70;;;;;;;0.39;100.00;99022.88;5049262;28;20230;-76
2023/01/22 08:44:41;;;;;;;22.77;13.90;;;;;;;0.39;100.00;99025.50;5051010;28;20704;-77
2023/01/22 08:47:09;;;;;;;25.37;13.87;;;;;;;0.38;100.00;99021.19;5052399;28;20204;-76
2023/01/22 08:49:35;;;;;;;21.17;14.07;;;;;;;0.36;100.00;99022.94;5049963;28;20484;-76
2023/01/22 08:52:02;;;;;;;26.17;14.90;;;;;;;0.40;100.00;99028.97;5051395;28;20220;-78
2023/01/22 08:54:30;;;;;;;22.40;13.83;;;;;;;0.39;100.00;99024.66;5053258;28;20218;-76
2023/01/22 08:56:59;;;;;;;22.33;12.97;;;;;;;0.41;100.00;99021.16;5052659;28;20208;-78
2023/01/22 08:59:25;;;;;;;23.97;13.60;;;;;;;0.47;100.00;99026.25;5048992;28;20234;-77
2023/01/22 09:01:52;;;;;;;23.33;13.43;;;;;;;0.48;100.00;99020.16;5044606;28;20820;-77
2023/01/22 09:04:19;;;;;;;23.13;12.70;;;;;;;0.58;100.00;99024.34;5053804;28;20330;-77
2023/01/22 09:06:46;;;;;;;25.73;14.03;;;;;;;0.60;100.00;99026.91;5052827;28;20212;-77
2023/01/22 09:09:13;;;;;;;22.27;13.13;;;;;;;0.55;100.00;99024.38;5053227;28;20733;-76
2023/01/22 09:11:40;;;;;;;21.43;13.03;;;;;;;0.56;100.00;99036.50;5053721;28;20216;-76
2023/01/22 09:14:08;;;;;;;24.20;13.67;;;;;;;0.55;100.00;99039.16;5053536;28;20209;-76
2023/01/22 09:16:35;;;;;;;25.70;13.10;;;;;;;0.56;100.00;99035.66;5053911;28;20638;-76
2023/01/22 09:19:02;;;;;;;25.40;14.20;;;;;;;0.58;100.00;99032.16;5052691;28;20231;-76
2023/01/22 09:21:28;;;;;;;26.30;16.63;;;;;;;0.70;100.00;99039.78;5052733;28;20502;-76
2023/01/22 09:23:55;;;;;;;23.37;14.50;;;;;;;0.63;100.00;99043.31;5037392;28;20534;-77
2023/01/22 09:26:21;;;;;;;24.50;13.57;;;;;;;0.75;100.00;99032.72;5047021;28;20211;-77
2023/01/22 09:28:49;;;;;;;19.97;12.70;;;;;;;0.78;100.00;99032.69;5049030;28;20231;-77
2023/01/22 09:31:16;;;;;;;21.63;13.23;;;;;;;0.73;100.00;99034.50;5045280;28;20218;-77
2023/01/22 09:33:43;;;;;;;24.97;12.70;;;;;;;0.72;100.00;99031.91;5051761;28;20740;-77
2023/01/22 09:36:12;;;;;;;21.20;12.40;;;;;;;0.83;100.00;99036.09;5050167;28;20208;-76
2023/01/22 09:38:38;;;;;;;25.43;13.20;;;;;;;0.87;100.00;99037.72;5047324;28;20270;-77
2023/01/22 09:41:14;;;;;;;21.17;12.03;;;;;;;0.84;100.00;99036.91;5049273;28;20216;-77
2023/01/22 09:43:48;;;;;;;20.27;12.47;;;;;;;0.89;100.00;99035.97;5048227;28;20363;-78
2023/01/22 09:46:20;;;;;;;23.13;12.90;;;;;;;0.94;100.00;99031.56;5051493;28;20219;-77
2023/01/22 09:48:53;;;;;;;19.87;11.33;;;;;;;0.99;100.00;99036.69;5050718;28;20228;-78
2023/01/22 09:51:21;;;;;;;19.93;11.30;;;;;;;1.03;100.00;99039.19;5051684;28;20232;-77
2023/01/22 09:53:54;;;;;;;21.80;12.80;;;;;;;1.10;100.00;99045.16;5053304;28;20231;-77
2023/01/22 09:56:23;;;;;;;20.97;12.53;;;;;;;1.11;100.00;99042.50;5053481;28;20212;-77
2023/01/22 09:58:51;;;;;;;21.77;12.47;;;;;;;1.10;100.00;99038.19;5054229;28;20234;-76
2023/01/22 10:01:21;;;;;;;19.77;12.37;;;;;;;1.06;100.00;99044.34;5052587;28;20215;-76
2023/01/22 10:03:52;;;;;;;22.13;12.37;;;;;;;1.07;100.00;99048.69;5053438;28;20231;-77
2023/01/22 10:06:21;;;;;;;21.10;12.93;;;;;;;1.15;100.00;99049.41;5051154;28;20201;-77
2023/01/22 10:08:57;;;;;;;21.77;13.57;;;;;;;1.17;100.00;99045.00;5049523;28;20232;-77
2023/01/22 10:11:24;;;;;;;18.33;11.77;;;;;;;1.28;100.00;99050.06;5053143;28;20299;-76
2023/01/22 10:13:55;;;;;;;22.80;12.83;;;;;;;1.34;100.00;99050.78;5053288;28;20569;-76
2023/01/22 10:16:22;;;;;;;19.67;12.33;;;;;;;1.38;100.00;99052.47;5053051;28;20200;-76
2023/01/22 10:18:54;;;;;;;18.37;11.63;;;;;;;1.31;100.00;99052.59;5052582;28;20224;-76
2023/01/22 10:21:24;;;;;;;21.47;12.07;;;;;;;1.25;100.00;99056.19;5052873;28;20205;-76
2023/01/22 10:23:51;;;;;;;19.23;11.50;;;;;;;1.27;100.00;99050.91;5053779;28;20246;-76
2023/01/22 10:26:23;;;;;;;19.53;11.83;;;;;;;1.17;100.00;99058.03;5049464;28;20594;-77
2023/01/22 10:28:52;;;;;;;20.53;11.77;;;;;;;1.21;100.00;99058.84;5046488;28;20282;-76
2023/01/22 10:31:27;;;;;;;19.50;12.00;;;;;;;1.25;100.00;99060.50;5052208;28;20213;-78
2023/01/22 10:33:58;;;;;;;20.87;11.73;;;;;;;1.26;100.00;99057.88;5053195;28;20237;-78
2023/01/22 10:36:25;;;;;;;18.43;11.43;;;;;;;1.27;100.00;99070.00;5053168;28;20200;-77
2023/01/22 10:39:03;;;;;;;20.23;12.63;;;;;;;1.21;100.00;99064.91;5067274;22;20272;-81
2023/01/22 10:41:30;;;;;;;18.23;11.80;;;;;;;1.16;100.00;99069.34;5032749;28;20216;-83
2023/01/22 10:44:07;;;;;;;21.07;13.03;;;;;;;1.22;100.00;99071.00;5032810;28;20212;-82
2023/01/22 10:46:35;;;;;;;19.67;11.77;;;;;;;1.22;100.00;99068.38;5032731;28;20216;-82
2023/01/22 10:49:05;;;;;;;21.93;12.60;;;;;;;1.19;100.00;99069.31;5031730;28;20324;-81
2023/01/22 10:51:36;;;;;;;20.80;11.93;;;;;;;1.28;100.00;99068.28;5032377;28;20223;-81
2023/01/22 10:54:03;;;;;;;21.93;11.73;;;;;;;1.24;100.00;99070.06;5032760;28;20545;-82
2023/01/22 10:56:32;;;;;;;19.37;11.70;;;;;;;1.30;100.00;99069.94;5032262;28;20220;-82
2023/01/22 10:59:02;;;;;;;18.77;11.93;;;;;;;1.35;100.00;99068.13;5031671;28;20234;-83
2023/01/22 11:01:32;;;;;;;20.23;11.90;;;;;;;1.33;100.00;99069.91;5032421;28;20587;-83
2023/01/22 11:04:11;;;;;;;19.70;11.73;;;;;;;1.37;100.00;99061.16;5032163;28;20283;-83
2023/01/22 11:06:41;;;;;;;18.63;11.27;;;;;;;1.38;100.00;99054.19;5032197;28;20211;-84
2023/01/22 11:09:15;;;;;;;21.17;11.77;;;;;;;1.34;100.00;99066.41;5030721;28;20240;-84
2023/01/22 11:11:50;;;;;;;20.17;12.20;;;;;;;1.36;100.00;99059.41;5029643;28;20215;-83
2023/01/22 11:14:23;;;;;;;18.87;11.53;;;;;;;1.33;100.00;99064.69;5027865;28;20574;-85
2023/01/22 11:16:53;;;;;;;20.33;11.77;;;;;;;1.35;100.00;99062.91;5029859;28;20215;-84
2023/01/22 11:19:25;;;;;;;21.20;12.13;;;;;;;1.39;100.00;99068.91;5031464;28;20243;-80
2023/01/22 11:21:54;;;;;;;16.60;11.13;;;;;;;1.31;100.00;99061.28;5031131;28;20205;-83